Time;durP1;ratioP1;P1;durP2;ratioP2;P2;SDS_P1;SDS_P2;PMS_P1;PMS_P2;Temp;Humidity;BMP_temperature;BMP_pressure;BME280_temperature;BME280_humidity;BME280_pressure;Samples;Min_cycle;Max_cycle;Signal;HPM_P1;HPM_P2
2022/11/07 00:00:22;;;;;;;0.10;0.10;;;;;;;10.05;100.00;100674.03;4994147;28;20060;-74
2022/11/07 00:02:47;;;;;;;0.10;0.10;;;;;;;10.01;100.00;100678.81;4986478;28;20031;-73
2022/11/07 00:05:12;;;;;;;0.10;0.10;;;;;;;9.90;100.00;100670.72;4992603;28;20145;-78
2022/11/07 00:07:37;;;;;;;0.10;0.10;;;;;;;9.97;100.00;100673.78;4976101;28;20030;-78
2022/11/07 00:10:04;;;;;;;0.10;0.10;;;;;;;10.11;100.00;100678.06;4988711;28;20053;-73
2022/11/07 00:12:29;;;;;;;0.10;0.10;;;;;;;10.04;100.00;100675.88;4994445;28;20045;-74
2022/11/07 00:14:54;;;;;;;0.10;0.10;;;;;;;9.90;100.00;100657.31;4995938;28;20030;-72
2022/11/07 00:17:20;;;;;;;0.10;0.10;;;;;;;10.08;100.00;100680.97;4986812;28;20034;-73
2022/11/07 00:19:45;;;;;;;0.10;0.10;;;;;;;10.00;100.00;100684.28;4989773;28;20041;-75
2022/11/07 00:22:10;;;;;;;0.10;0.10;;;;;;;9.81;100.00;100692.88;4984021;28;20037;-72
2022/11/07 00:24:35;;;;;;;0.10;0.10;;;;;;;9.77;100.00;100668.16;4987757;28;20742;-74
2022/11/07 00:27:01;;;;;;;0.10;0.10;;;;;;;9.89;100.00;100687.78;4986419;28;20045;-76
2022/11/07 00:29:26;;;;;;;0.10;0.10;;;;;;;9.84;100.00;100706.94;4986727;28;20125;-75
2022/11/07 00:31:52;;;;;;;0.10;0.10;;;;;;;9.88;100.00;100695.00;4985346;28;20754;-78
2022/11/07 00:34:17;;;;;;;0.10;0.10;;;;;;;9.74;100.00;100703.22;4989398;28;20030;-75
2022/11/07 00:36:42;;;;;;;0.10;0.10;;;;;;;9.74;100.00;100690.69;4989637;28;21028;-72
2022/11/07 00:39:09;;;;;;;0.10;0.10;;;;;;;10.02;100.00;100690.38;4973695;28;20048;-73
2022/11/07 00:41:34;;;;;;;0.10;0.10;;;;;;;10.00;100.00;100716.47;5001288;28;20030;-74
2022/11/07 00:43:59;;;;;;;0.10;0.10;;;;;;;10.01;100.00;100704.75;4993471;28;20041;-73
2022/11/07 00:46:25;;;;;;;0.10;0.10;;;;;;;10.03;100.00;100694.75;4984937;28;20026;-72
2022/11/07 00:48:50;;;;;;;0.10;0.10;;;;;;;10.08;100.00;100680.97;4990269;28;20780;-73
2022/11/07 00:51:21;;;;;;;0.10;0.10;;;;;;;10.19;100.00;100703.34;4981069;28;20064;-76
2022/11/07 00:53:47;;;;;;;0.10;0.10;;;;;;;10.05;100.00;100698.19;4992987;28;20033;-77
2022/11/07 00:56:15;;;;;;;0.10;0.10;;;;;;;9.95;100.00;100695.38;4973983;28;20026;-77
2022/11/07 00:58:41;;;;;;;0.10;0.10;;;;;;;9.85;100.00;100708.63;4992801;28;20455;-77
2022/11/07 01:01:20;;;;;;;0.10;0.10;;;;;;;9.75;100.00;100678.13;4985249;28;20030;-73
2022/11/07 01:06:32;;;;;;;0.10;0.10;;;;;;;9.81;100.00;100699.13;4989625;28;20041;-74
2022/11/07 01:08:57;;;;;;;0.10;0.10;;;;;;;9.79;100.00;100705.56;4990184;28;20403;-73
2022/11/07 01:11:24;;;;;;;0.10;0.10;;;;;;;9.59;100.00;100697.22;4996186;28;20034;-74
2022/11/07 01:13:54;;;;;;;0.10;0.10;;;;;;;9.56;100.00;100690.28;4988001;28;20030;-74
2022/11/07 01:16:19;;;;;;;0.10;0.10;;;;;;;9.75;100.00;100715.66;4990542;28;20036;-75
2022/11/07 01:18:44;;;;;;;0.10;0.10;;;;;;;9.63;100.00;100728.19;4973835;28;20038;-75
2022/11/07 01:21:10;;;;;;;0.10;0.10;;;;;;;9.55;100.00;100720.72;4995543;28;20883;-75
2022/11/07 01:23:35;;;;;;;0.10;0.10;;;;;;;9.69;100.00;100735.75;4993064;28;20022;-77
2022/11/07 01:26:05;;;;;;;0.10;0.10;;;;;;;9.66;100.00;100736.00;4993381;28;20136;-76
2022/11/07 01:28:31;;;;;;;0.10;0.10;;;;;;;9.40;100.00;100687.91;4994813;28;20148;-74
2022/11/07 01:30:56;;;;;;;0.10;0.10;;;;;;;9.52;100.00;100739.72;5002086;28;20026;-74
2022/11/07 01:33:21;;;;;;;0.10;0.10;;;;;;;9.38;100.00;100713.94;4996983;28;20340;-77
2022/11/07 01:35:46;;;;;;;0.08;0.08;;;;;;;9.47;100.00;100744.56;4998544;28;20100;-75
2022/11/07 01:38:12;;;;;;;0.10;0.10;;;;;;;9.59;100.00;100746.34;4995122;28;20034;-77
2022/11/07 01:43:45;;;;;;;0.10;0.10;;;;;;;9.56;100.00;100733.16;5000941;28;20061;-82
2022/11/07 01:46:11;;;;;;;0.10;0.10;;;;;;;9.38;100.00;100748.78;5000290;28;20084;-73
2022/11/07 01:48:37;;;;;;;0.10;0.10;;;;;;;9.62;100.00;100731.81;4999173;28;20018;-73
2022/11/07 01:51:02;;;;;;;0.10;0.10;;;;;;;9.86;100.00;100755.06;4983695;28;20030;-74
2022/11/07 01:53:27;;;;;;;0.10;0.10;;;;;;;9.73;100.00;100745.28;4997168;28;20032;-76
2022/11/07 01:55:53;;;;;;;0.10;0.10;;;;;;;9.71;100.00;100739.19;4989314;28;20026;-73
2022/11/07 01:58:18;;;;;;;0.10;0.10;;;;;;;9.99;100.00;100731.72;5004367;28;20398;-72
2022/11/07 02:00:43;;;;;;;0.10;0.10;;;;;;;9.75;100.00;100745.16;4997567;28;20333;-72
2022/11/07 02:03:11;;;;;;;0.10;0.10;;;;;;;9.69;100.00;100741.13;4999405;28;20038;-76
2022/11/07 02:05:39;;;;;;;0.10;0.10;;;;;;;9.80;100.00;100737.63;4997491;28;20156;-73
2022/11/07 02:08:06;;;;;;;0.10;0.10;;;;;;;9.70;100.00;100729.44;4999316;28;20029;-74
2022/11/07 02:10:33;;;;;;;0.10;0.10;;;;;;;9.72;100.00;100742.72;5002078;28;20030;-72
2022/11/07 02:12:59;;;;;;;0.10;0.10;;;;;;;9.74;100.00;100752.38;5006265;28;20033;-75
2022/11/07 02:15:25;;;;;;;0.10;0.10;;;;;;;9.62;100.00;100744.38;5000220;28;20040;-73
2022/11/07 02:17:50;;;;;;;0.10;0.10;;;;;;;9.70;100.00;100758.91;4995052;28;20022;-72
2022/11/07 02:20:16;;;;;;;0.10;0.10;;;;;;;9.67;100.00;100742.19;5000889;28;20108;-75
2022/11/07 02:23:00;;;;;;;0.10;0.10;;;;;;;9.80;100.00;100743.00;4996877;28;21102;-73
2022/11/07 02:25:25;;;;;;;0.10;0.10;;;;;;;9.91;100.00;100755.56;5004100;28;20414;-76
2022/11/07 02:27:53;;;;;;;0.10;0.10;;;;;;;10.02;100.00;100758.31;4996544;28;20109;-76
2022/11/07 02:30:21;;;;;;;0.10;0.10;;;;;;;10.05;100.00;100751.84;4995576;28;20037;-74
2022/11/07 02:32:47;;;;;;;0.10;0.10;;;;;;;10.09;100.00;100733.66;5002586;28;20410;-72
2022/11/07 02:35:31;;;;;;;0.00;0.00;;;;;;;9.99;100.00;100745.13;4988594;28;20030;-73
2022/11/07 02:37:57;;;;;;;0.10;0.10;;;;;;;10.01;100.00;100726.22;5003894;28;20032;-80
2022/11/07 02:40:22;;;;;;;0.10;0.10;;;;;;;10.08;100.00;100726.59;4970268;28;20041;-75
2022/11/07 02:42:47;;;;;;;0.10;0.10;;;;;;;10.07;100.00;100736.47;4986053;28;20038;-74
2022/11/07 02:45:15;;;;;;;0.10;0.10;;;;;;;10.04;100.00;100720.63;4994558;28;20449;-75
2022/11/07 02:47:41;;;;;;;0.10;0.10;;;;;;;10.05;100.00;100749.16;4986476;28;20026;-75
2022/11/07 02:50:08;;;;;;;0.10;0.10;;;;;;;10.16;100.00;100727.72;4985457;28;20397;-71
2022/11/07 02:52:33;;;;;;;0.10;0.10;;;;;;;10.33;100.00;100753.22;4985510;28;20587;-71
2022/11/07 02:54:59;;;;;;;0.10;0.10;;;;;;;10.16;100.00;100726.84;4990901;28;20041;-70
2022/11/07 02:57:24;;;;;;;0.10;0.10;;;;;;;10.10;100.00;100744.28;4990748;28;20432;-72
2022/11/07 02:59:49;;;;;;;0.10;0.10;;;;;;;10.12;100.00;100734.28;4971906;28;20041;-72
2022/11/07 03:02:15;;;;;;;0.10;0.10;;;;;;;10.10;100.00;100732.69;4984588;28;20044;-72
2022/11/07 03:04:40;;;;;;;0.10;0.10;;;;;;;10.00;100.00;100729.88;4977302;28;20496;-73
2022/11/07 03:07:05;;;;;;;0.10;0.10;;;;;;;10.05;100.00;100733.06;4985232;28;20644;-75
2022/11/07 03:09:31;;;;;;;0.10;0.10;;;;;;;10.16;100.00;100716.13;4992189;28;20041;-75
2022/11/07 03:11:56;;;;;;;0.10;0.10;;;;;;;9.92;100.00;100727.78;4993547;28;20021;-71
2022/11/07 03:14:21;;;;;;;0.10;0.10;;;;;;;10.13;100.00;100737.81;4986693;28;20033;-73
2022/11/07 03:16:46;;;;;;;0.10;0.10;;;;;;;10.05;100.00;100728.56;4987804;28;20129;-72
2022/11/07 03:19:12;;;;;;;0.10;0.10;;;;;;;9.83;100.00;100688.25;4987562;28;20411;-72
2022/11/07 03:21:37;;;;;;;0.10;0.10;;;;;;;9.90;100.00;100743.13;4983763;28;20034;-72
2022/11/07 03:24:02;;;;;;;0.10;0.10;;;;;;;10.07;100.00;100728.44;4987600;28;20144;-73
2022/11/07 03:26:28;;;;;;;0.10;0.10;;;;;;;9.89;100.00;100720.84;5002967;28;20057;-74
2022/11/07 03:28:54;;;;;;;0.10;0.10;;;;;;;9.89;100.00;100742.28;4986838;28;20395;-74
2022/11/07 03:31:19;;;;;;;0.10;0.10;;;;;;;9.79;100.00;100725.19;4986054;28;20022;-77
2022/11/07 03:33:44;;;;;;;0.10;0.10;;;;;;;10.15;100.00;100750.16;4982699;28;20129;-73
2022/11/07 03:36:10;;;;;;;0.20;0.20;;;;;;;10.10;100.00;100741.59;4997061;28;20041;-73
2022/11/07 03:38:35;;;;;;;0.10;0.10;;;;;;;9.88;100.00;100756.69;5004782;28;20025;-77
2022/11/07 03:41:00;;;;;;;0.10;0.10;;;;;;;9.90;100.00;100765.47;5020106;28;20038;-74
2022/11/07 03:43:25;;;;;;;0.10;0.10;;;;;;;9.88;100.00;100755.81;5008432;28;20033;-73
2022/11/07 03:45:51;;;;;;;0.10;0.10;;;;;;;9.90;100.00;100741.31;5005733;28;20089;-79
2022/11/07 03:48:16;;;;;;;0.10;0.10;;;;;;;9.79;100.00;100741.28;5005604;28;20029;-74
2022/11/07 03:50:41;;;;;;;0.10;0.10;;;;;;;9.92;100.00;100759.13;4986796;28;20037;-77
2022/11/07 03:53:07;;;;;;;0.10;0.10;;;;;;;10.04;100.00;100753.69;5006842;28;20538;-72
2022/11/07 03:55:32;;;;;;;0.10;0.10;;;;;;;10.03;100.00;100769.88;5001716;28;20428;-74
2022/11/07 03:57:57;;;;;;;0.10;0.10;;;;;;;9.80;100.00;100748.34;5004452;28;20033;-76
2022/11/07 04:00:23;;;;;;;0.17;0.17;;;;;;;9.91;100.00;100766.31;4988597;28;20061;-72
2022/11/07 04:02:48;;;;;;;0.10;0.10;;;;;;;9.79;100.00;100751.16;5001145;28;20109;-74
2022/11/07 04:05:13;;;;;;;0.10;0.10;;;;;;;9.92;100.00;100772.53;5005110;28;20518;-71
2022/11/07 04:07:38;;;;;;;0.10;0.10;;;;;;;9.99;100.00;100765.72;4998112;28;20029;-78
2022/11/07 04:10:04;;;;;;;0.10;0.10;;;;;;;10.08;100.00;100770.38;4992477;28;20058;-75
2022/11/07 04:17:59;;;;;;;0.10;0.10;;;;;;;10.14;100.00;100755.63;5001607;28;20048;-73
2022/11/07 04:20:24;;;;;;;0.10;0.10;;;;;;;10.05;100.00;100773.28;5015705;28;20076;-75
2022/11/07 04:22:49;;;;;;;0.10;0.10;;;;;;;10.19;100.00;100762.38;4997123;28;20409;-74
2022/11/07 04:25:15;;;;;;;0.10;0.10;;;;;;;9.99;100.00;100736.19;5000697;28;20117;-72
2022/11/07 04:27:43;;;;;;;0.10;0.10;;;;;;;10.30;100.00;100755.28;4995857;28;20026;-70
2022/11/07 04:30:25;;;;;;;0.10;0.10;;;;;;;10.13;100.00;100761.97;4997884;28;20041;-72
2022/11/07 04:32:52;;;;;;;0.10;0.10;;;;;;;10.24;100.00;100764.69;4997338;28;20084;-74
2022/11/07 04:35:19;;;;;;;0.10;0.10;;;;;;;10.15;100.00;100735.88;5001115;28;20113;-75
2022/11/07 04:37:45;;;;;;;0.10;0.10;;;;;;;10.17;100.00;100753.56;4979920;28;20054;-71
2022/11/07 04:40:10;;;;;;;0.10;0.10;;;;;;;10.42;100.00;100773.16;4991678;28;20022;-70
2022/11/07 04:42:36;;;;;;;0.10;0.10;;;;;;;10.14;100.00;100732.34;4979204;28;20072;-74
2022/11/07 04:45:01;;;;;;;0.10;0.10;;;;;;;10.28;100.00;100759.91;4988944;28;20080;-75
2022/11/07 04:47:27;;;;;;;0.15;0.15;;;;;;;10.16;100.00;100746.50;4986848;28;20038;-73
2022/11/07 04:49:52;;;;;;;0.10;0.10;;;;;;;10.26;100.00;100748.44;4974525;28;20082;-69
2022/11/07 04:52:17;;;;;;;0.10;0.10;;;;;;;10.20;100.00;100741.75;4989038;28;20731;-71
2022/11/07 04:54:43;;;;;;;0.10;0.10;;;;;;;10.18;100.00;100766.03;4989028;28;20477;-71
2022/11/07 04:57:08;;;;;;;0.20;0.20;;;;;;;9.90;100.00;100753.88;4994972;28;20037;-75
2022/11/07 04:59:33;;;;;;;0.10;0.10;;;;;;;10.12;100.00;100752.19;4992201;28;20030;-70
2022/11/07 05:01:58;;;;;;;0.10;0.10;;;;;;;9.80;100.00;100747.50;4992860;28;20038;-73
2022/11/07 05:04:24;;;;;;;0.10;0.10;;;;;;;10.18;100.00;100766.03;4992749;28;20126;-73
2022/11/07 05:06:49;;;;;;;0.10;0.10;;;;;;;10.05;100.00;100760.75;4995580;28;20022;-74
2022/11/07 05:09:19;;;;;;;0.10;0.10;;;;;;;10.11;100.00;100762.09;5007453;28;20111;-77
2022/11/07 05:11:45;;;;;;;0.10;0.10;;;;;;;10.03;100.00;100760.00;4994709;28;20541;-74
2022/11/07 05:14:11;;;;;;;0.10;0.10;;;;;;;10.19;100.00;100773.09;4994806;28;20073;-73
2022/11/07 05:16:37;;;;;;;0.13;0.13;;;;;;;9.88;100.00;100764.72;4991858;28;20034;-77
2022/11/07 05:19:02;;;;;;;0.08;0.08;;;;;;;10.09;100.00;100784.63;4992245;28;20415;-71
2022/11/07 05:21:28;;;;;;;0.10;0.10;;;;;;;10.08;100.00;100790.97;4995517;28;20120;-74
2022/11/07 05:23:53;;;;;;;0.10;0.10;;;;;;;10.04;100.00;100747.44;4996988;28;20353;-72
2022/11/07 05:26:18;;;;;;;0.10;0.10;;;;;;;10.18;100.00;100775.88;4999234;28;20041;-72
2022/11/07 05:28:44;;;;;;;0.10;0.10;;;;;;;10.18;100.00;100762.47;5001178;28;20018;-71
2022/11/07 05:31:14;;;;;;;0.10;0.10;;;;;;;10.28;100.00;100774.22;4999685;28;20022;-76
2022/11/07 05:33:40;;;;;;;0.10;0.10;;;;;;;10.09;100.00;100737.22;5001354;28;20022;-70
2022/11/07 05:36:09;;;;;;;0.10;0.10;;;;;;;10.47;100.00;100784.38;4997564;28;20049;-71
2022/11/07 05:38:34;;;;;;;0.10;0.10;;;;;;;10.31;100.00;100759.69;4999701;28;20124;-72
2022/11/07 05:41:03;;;;;;;0.10;0.10;;;;;;;10.34;100.00;100780.91;5001646;28;20129;-72
2022/11/07 05:43:28;;;;;;;0.10;0.10;;;;;;;10.42;100.00;100788.41;5001758;28;20057;-74
2022/11/07 05:45:58;;;;;;;0.10;0.10;;;;;;;10.41;100.00;100792.06;4994121;28;20061;-69
2022/11/07 05:48:24;;;;;;;0.10;0.10;;;;;;;10.56;100.00;100787.31;4998852;28;20022;-78
2022/11/07 05:50:49;;;;;;;0.10;0.10;;;;;;;10.50;100.00;100788.66;4998724;28;20430;-72
2022/11/07 05:53:14;;;;;;;0.10;0.10;;;;;;;10.46;100.00;100796.06;5000639;28;20463;-71
2022/11/07 05:55:40;;;;;;;0.10;0.10;;;;;;;10.36;100.00;100770.91;4998525;28;20029;-75
2022/11/07 05:58:10;;;;;;;0.10;0.10;;;;;;;10.56;100.00;100780.13;4986703;28;20066;-71
2022/11/07 06:00:35;;;;;;;0.10;0.10;;;;;;;10.60;100.00;100796.84;5016988;28;20052;-71
2022/11/07 06:03:00;;;;;;;0.10;0.10;;;;;;;10.47;100.00;100787.06;4998236;28;20245;-71
2022/11/07 06:05:26;;;;;;;0.10;0.10;;;;;;;10.75;100.00;100773.28;4980623;28;20121;-78
2022/11/07 06:07:51;;;;;;;0.13;0.13;;;;;;;10.58;100.00;100793.41;4998365;28;20349;-77
2022/11/07 06:10:17;;;;;;;0.10;0.10;;;;;;;10.34;100.00;100759.44;4976450;28;20038;-80
2022/11/07 06:12:42;;;;;;;0.10;0.10;;;;;;;10.37;100.00;100794.09;4994108;28;20076;-76
2022/11/07 06:15:08;;;;;;;0.10;0.10;;;;;;;10.15;100.00;100768.94;5001453;28;20684;-76
2022/11/07 06:17:33;;;;;;;0.10;0.10;;;;;;;10.39;100.00;100791.31;4996184;28;20472;-73
2022/11/07 06:19:58;;;;;;;0.10;0.10;;;;;;;10.23;100.00;100760.28;4984102;28;20072;-76
2022/11/07 06:22:24;;;;;;;0.10;0.10;;;;;;;10.45;100.00;100786.34;4997448;28;20057;-73
2022/11/07 06:24:50;;;;;;;0.20;0.20;;;;;;;10.19;100.00;100753.44;4993921;28;20487;-74
2022/11/07 06:27:15;;;;;;;0.10;0.10;;;;;;;10.01;100.00;100759.28;4995024;28;20096;-76
2022/11/07 06:29:40;;;;;;;0.10;0.10;;;;;;;9.99;100.00;100773.75;4992810;28;20042;-75
2022/11/07 06:32:06;;;;;;;0.10;0.10;;;;;;;10.16;100.00;100800.16;4997436;28;20061;-77
2022/11/07 06:34:31;;;;;;;0.10;0.10;;;;;;;10.19;100.00;100807.09;4994453;28;20091;-73
2022/11/07 06:36:56;;;;;;;0.10;0.10;;;;;;;10.35;100.00;100801.41;5001237;28;20477;-74
2022/11/07 06:39:22;;;;;;;0.10;0.10;;;;;;;10.27;100.00;100785.91;4994019;28;20037;-76
2022/11/07 06:41:48;;;;;;;0.10;0.10;;;;;;;10.29;100.00;100800.06;5000051;28;20030;-75
2022/11/07 06:44:13;;;;;;;0.10;0.10;;;;;;;10.47;100.00;100797.78;4992274;28;20033;-75
2022/11/07 06:46:38;;;;;;;0.10;0.10;;;;;;;10.44;100.00;100790.00;4992262;28;20524;-75
2022/11/07 06:49:04;;;;;;;0.10;0.10;;;;;;;10.45;100.00;100804.25;4997231;28;20480;-75
2022/11/07 06:51:29;;;;;;;0.10;0.10;;;;;;;10.56;100.00;100812.34;5004072;28;20049;-74
2022/11/07 06:53:55;;;;;;;0.10;0.10;;;;;;;10.57;100.00;100806.00;4999836;28;20080;-77
2022/11/07 06:56:20;;;;;;;0.10;0.10;;;;;;;10.42;100.00;100783.03;4998109;28;20467;-72
2022/11/07 06:58:45;;;;;;;0.10;0.10;;;;;;;10.76;100.00;100809.91;4999059;28;20140;-70
2022/11/07 07:01:15;;;;;;;0.10;0.10;;;;;;;10.61;100.00;100823.56;4999839;28;20076;-77
2022/11/07 07:03:41;;;;;;;0.10;0.10;;;;;;;10.71;100.00;100809.41;4981991;28;20057;-74
2022/11/07 07:06:10;;;;;;;0.10;0.10;;;;;;;10.74;100.00;100820.75;4999709;28;20048;-76
2022/11/07 07:08:35;;;;;;;0.10;0.10;;;;;;;10.72;100.00;100808.44;4979063;28;20109;-76
2022/11/07 07:11:04;;;;;;;0.10;0.10;;;;;;;10.63;100.00;100793.91;4992602;28;20036;-76
2022/11/07 07:13:29;;;;;;;0.10;0.10;;;;;;;10.68;100.00;100807.84;4979982;28;20431;-76
2022/11/07 07:15:56;;;;;;;0.10;0.10;;;;;;;10.71;100.00;100829.09;4993834;28;20108;-75
2022/11/07 07:18:22;;;;;;;0.10;0.10;;;;;;;10.84;100.00;100838.84;4998048;28;20030;-78
2022/11/07 07:20:48;;;;;;;0.10;0.10;;;;;;;10.90;100.00;100841.88;4997140;28;20400;-76
2022/11/07 07:23:18;;;;;;;0.10;0.10;;;;;;;10.96;100.00;100835.19;4993737;28;20038;-74
2022/11/07 07:25:44;;;;;;;0.10;0.10;;;;;;;10.96;100.00;100835.19;4998349;28;20034;-72
2022/11/07 07:28:09;;;;;;;0.10;0.10;;;;;;;11.10;100.00;100844.84;4996587;28;20431;-71
2022/11/07 07:30:34;;;;;;;0.10;0.10;;;;;;;10.98;100.00;100837.75;4998631;28;20419;-73
2022/11/07 07:32:59;;;;;;;0.10;0.10;;;;;;;11.01;100.00;100832.13;4994362;28;20113;-73
2022/11/07 07:35:25;;;;;;;0.10;0.10;;;;;;;11.18;100.00;100837.00;4993565;28;20113;-71
2022/11/07 07:37:50;;;;;;;0.10;0.10;;;;;;;11.22;100.00;100857.28;4994456;28;20057;-76
2022/11/07 07:40:16;;;;;;;0.10;0.10;;;;;;;11.05;100.00;100853.25;4993114;28;20162;-73
2022/11/07 07:42:42;;;;;;;0.10;0.10;;;;;;;11.27;100.00;100854.22;5011600;28;20094;-75
2022/11/07 07:45:12;;;;;;;0.10;0.10;;;;;;;11.15;100.00;100850.69;4996800;28;20450;-72
2022/11/07 07:47:38;;;;;;;0.10;0.10;;;;;;;11.23;100.00;100850.09;4994408;28;20022;-70
2022/11/07 07:50:05;;;;;;;0.13;0.13;;;;;;;11.25;100.00;100859.72;4997269;28;20029;-77
2022/11/07 07:52:30;;;;;;;0.00;0.00;;;;;;;11.16;100.00;100851.56;4993021;28;20036;-76
2022/11/07 07:54:55;;;;;;;0.10;0.10;;;;;;;11.48;100.00;100861.53;5000609;28;20026;-76
2022/11/07 07:57:20;;;;;;;0.10;0.10;;;;;;;11.47;100.00;100860.66;4998093;28;20510;-77
2022/11/07 07:59:46;;;;;;;0.10;0.10;;;;;;;11.40;100.00;100840.63;4992775;28;20036;-74
2022/11/07 08:02:11;;;;;;;0.10;0.10;;;;;;;11.60;100.00;100867.75;4995010;28;20056;-77
2022/11/07 08:04:36;;;;;;;0.10;0.10;;;;;;;11.60;100.00;100857.84;4994098;28;20058;-74
2022/11/07 08:07:02;;;;;;;0.10;0.10;;;;;;;11.66;100.00;100867.22;4991911;28;20030;-74
2022/11/07 08:09:30;;;;;;;0.10;0.10;;;;;;;11.66;100.00;100873.47;4998334;28;20117;-73
2022/11/07 08:11:55;;;;;;;0.10;0.10;;;;;;;11.66;100.00;100884.22;4991585;28;20032;-74
2022/11/07 08:14:20;;;;;;;0.10;0.10;;;;;;;11.65;100.00;100877.13;4990431;28;20026;-75
2022/11/07 08:16:46;;;;;;;0.10;0.10;;;;;;;11.78;100.00;100844.69;5001609;28;20029;-74
2022/11/07 08:19:11;;;;;;;0.10;0.10;;;;;;;11.78;100.00;100884.22;4994069;28;20073;-75
2022/11/07 08:21:36;;;;;;;0.10;0.10;;;;;;;11.87;100.00;100861.91;4990661;28;20514;-75
2022/11/07 08:24:02;;;;;;;0.10;0.10;;;;;;;11.86;100.00;100860.19;4991760;28;20037;-76
2022/11/07 08:26:27;;;;;;;0.10;0.10;;;;;;;11.88;100.00;100887.00;4989801;28;20065;-75
2022/11/07 08:28:53;;;;;;;0.08;0.08;;;;;;;12.02;100.00;100893.94;4996734;28;20388;-74
2022/11/07 08:31:18;;;;;;;0.10;0.10;;;;;;;11.92;100.00;100875.00;4989572;28;20381;-77
2022/11/07 08:33:44;;;;;;;0.05;0.05;;;;;;;11.90;100.00;100888.56;4998316;28;20018;-73
2022/11/07 08:36:09;;;;;;;0.10;0.10;;;;;;;11.96;100.00;100887.19;4999477;28;20321;-73
2022/11/07 08:38:35;;;;;;;0.10;0.10;;;;;;;12.13;100.00;100888.50;4985809;28;20040;-75
2022/11/07 08:41:00;;;;;;;0.10;0.10;;;;;;;11.99;100.00;100881.59;4995246;28;20030;-74
2022/11/07 08:43:26;;;;;;;0.10;0.10;;;;;;;12.06;100.00;100880.09;4991326;28;20499;-75
2022/11/07 08:45:52;;;;;;;0.10;0.10;;;;;;;12.26;100.00;100897.28;4995158;28;20772;-73
2022/11/07 08:48:17;;;;;;;0.10;0.10;;;;;;;12.38;100.00;100881.06;4985298;28;20018;-74
2022/11/07 08:50:43;;;;;;;0.10;0.10;;;;;;;12.50;100.00;100903.38;5003602;28;20036;-74
2022/11/07 08:53:08;;;;;;;0.10;0.10;;;;;;;12.63;100.00;100897.81;4996308;28;20416;-76
2022/11/07 08:55:34;;;;;;;0.10;0.10;;;;;;;12.81;100.00;100917.81;4987491;28;20112;-73
2022/11/07 08:58:01;;;;;;;0.10;0.10;;;;;;;12.69;100.00;100899.97;4994155;28;20027;-73
2022/11/07 09:00:26;;;;;;;0.10;0.10;;;;;;;12.79;100.00;100927.84;5003248;28;20512;-72
2022/11/07 09:02:52;;;;;;;0.10;0.10;;;;;;;12.62;100.00;100923.91;4992161;28;20034;-74
2022/11/07 09:05:17;;;;;;;0.10;0.10;;;;;;;12.63;100.00;100924.75;4996860;28;20041;-75
2022/11/07 09:07:42;;;;;;;0.10;0.10;;;;;;;12.57;100.00;100924.31;4995453;28;20069;-74
2022/11/07 09:10:08;;;;;;;0.00;0.00;;;;;;;12.26;100.00;100891.91;4999275;28;20030;-76
2022/11/07 09:12:33;;;;;;;0.10;0.10;;;;;;;12.57;100.00;100942.28;4992079;28;20131;-75
2022/11/07 09:14:58;;;;;;;0.10;0.10;;;;;;;12.47;100.00;100927.88;5002734;28;20029;-74
2022/11/07 09:17:24;;;;;;;0.10;0.10;;;;;;;12.52;100.00;100941.81;4997836;28;20044;-71
2022/11/07 09:19:49;;;;;;;0.10;0.10;;;;;;;12.53;100.00;100933.63;4994365;28;20034;-73
2022/11/07 09:22:14;;;;;;;0.10;0.10;;;;;;;12.41;100.00;100948.97;4983094;28;20030;-73
2022/11/07 09:24:40;;;;;;;0.10;0.10;;;;;;;12.41;100.00;100940.91;5000484;28;20380;-74
2022/11/07 09:27:05;;;;;;;0.10;0.10;;;;;;;12.39;100.00;100948.25;4997243;28;20065;-74
2022/11/07 09:29:30;;;;;;;0.10;0.10;;;;;;;12.27;100.00;100941.19;4998617;28;20554;-73
2022/11/07 09:31:55;;;;;;;0.10;0.10;;;;;;;12.40;100.00;100946.41;4996288;28;20034;-75
2022/11/07 09:34:21;;;;;;;0.10;0.10;;;;;;;12.42;100.00;100952.50;4999964;28;20260;-74
2022/11/07 09:36:46;;;;;;;0.00;0.00;;;;;;;12.59;100.00;100959.19;4995937;28;20029;-72
2022/11/07 09:39:11;;;;;;;0.10;0.10;;;;;;;12.63;100.00;100960.63;4995597;28;20568;-72
2022/11/07 09:41:55;;;;;;;0.10;0.10;;;;;;;12.58;100.00;100960.16;5003044;28;20018;-72
2022/11/07 09:44:28;;;;;;;0.10;0.10;;;;;;;12.45;100.00;100961.19;4998763;28;20033;-74
2022/11/07 09:46:58;;;;;;;0.10;0.10;;;;;;;12.50;100.00;100973.41;4996099;28;20698;-75
2022/11/07 09:49:36;;;;;;;0.10;0.10;;;;;;;12.53;100.00;100965.94;5001235;28;20034;-72
2022/11/07 09:52:27;;;;;;;0.10;0.10;;;;;;;12.47;100.00;100966.44;4992265;28;20029;-74
2022/11/07 09:55:00;;;;;;;0.10;0.10;;;;;;;12.41;100.00;100975.03;5000318;28;20544;-75
2022/11/07 09:57:28;;;;;;;0.10;0.10;;;;;;;12.27;100.00;100951.97;4997787;28;20041;-79
2022/11/07 09:59:57;;;;;;;0.10;0.10;;;;;;;12.28;100.00;100956.34;5000375;28;20075;-72
2022/11/07 10:02:25;;;;;;;0.10;0.10;;;;;;;12.51;100.00;100977.81;4998760;28;20060;-76
2022/11/07 10:04:55;;;;;;;0.10;0.10;;;;;;;12.43;100.00;100978.47;4998674;28;20041;-72
2022/11/07 10:07:44;;;;;;;0.10;0.10;;;;;;;12.52;100.00;100974.13;4997940;28;20534;-72
2022/11/07 10:10:18;;;;;;;0.10;0.10;;;;;;;12.29;100.00;100953.56;5012444;28;20085;-72
2022/11/07 10:12:51;;;;;;;0.10;0.10;;;;;;;12.43;100.00;100952.41;4996762;28;20543;-78
2022/11/07 10:15:27;;;;;;;0.10;0.10;;;;;;;12.47;100.00;100946.72;4993894;28;20037;-74
2022/11/07 10:18:18;;;;;;;0.10;0.10;;;;;;;12.68;100.00;100976.38;4997367;28;20484;-74
2022/11/07 10:21:17;;;;;;;0.00;0.00;;;;;;;12.73;100.00;100966.09;4996803;28;20041;-74
2022/11/07 10:24:06;;;;;;;0.10;0.10;;;;;;;12.88;100.00;100988.16;4989138;28;20515;-72
2022/11/07 10:26:32;;;;;;;0.10;0.10;;;;;;;12.97;100.00;100971.22;4994672;28;20341;-76
2022/11/07 10:29:08;;;;;;;0.10;0.10;;;;;;;13.12;100.00;100989.75;4992982;28;20543;-72
2022/11/07 10:31:37;;;;;;;0.10;0.10;;;;;;;13.13;100.00;100981.50;4985263;28;20025;-72
2022/11/07 10:34:26;;;;;;;0.10;0.10;;;;;;;13.10;100.00;100964.75;4995037;28;20483;-76
2022/11/07 10:36:51;;;;;;;0.10;0.10;;;;;;;13.12;100.00;100992.44;4997416;28;20025;-72
2022/11/07 10:39:18;;;;;;;0.10;0.10;;;;;;;13.10;100.00;100986.31;4997123;28;20935;-76
2022/11/07 10:41:56;;;;;;;0.10;0.10;;;;;;;13.01;100.00;100990.66;5003437;28;20044;-72
2022/11/07 10:44:25;;;;;;;0.03;0.03;;;;;;;13.09;100.00;100985.47;4994936;28;20534;-73
2022/11/07 10:46:51;;;;;;;0.10;0.10;;;;;;;13.01;100.00;100966.41;5003053;28;20037;-74
2022/11/07 10:49:31;;;;;;;0.10;0.10;;;;;;;12.84;100.00;100965.16;4990757;28;20072;-73
2022/11/07 10:52:08;;;;;;;0.10;0.10;;;;;;;12.96;100.00;100971.34;4990052;28;20117;-73
2022/11/07 10:54:34;;;;;;;0.10;0.10;;;;;;;12.93;100.00;100969.78;4994554;28;20511;-76
2022/11/07 10:57:04;;;;;;;0.10;0.10;;;;;;;12.99;100.00;100985.41;4992976;28;20030;-73
2022/11/07 10:59:32;;;;;;;0.10;0.10;;;;;;;12.93;100.00;100956.31;5005577;28;20025;-75
2022/11/07 11:01:58;;;;;;;0.10;0.10;;;;;;;13.27;100.00;100982.16;4995155;28;20034;-72
2022/11/07 11:04:29;;;;;;;0.10;0.10;;;;;;;13.12;100.00;100995.13;5005086;28;20480;-71
2022/11/07 11:07:07;;;;;;;0.10;0.10;;;;;;;13.18;100.00;100984.66;5003730;28;20022;-77
2022/11/07 11:09:34;;;;;;;0.10;0.10;;;;;;;13.19;100.00;100999.03;5000749;28;20045;-73
2022/11/07 11:12:05;;;;;;;0.10;0.10;;;;;;;13.08;100.00;100993.69;4995242;28;20030;-72
2022/11/07 11:14:30;;;;;;;0.10;0.10;;;;;;;13.29;100.00;100980.19;5004029;28;20030;-74
2022/11/07 11:16:55;;;;;;;0.10;0.10;;;;;;;13.09;100.00;100990.88;5002840;28;20025;-73
2022/11/07 11:19:24;;;;;;;0.10;0.10;;;;;;;13.33;100.00;100995.13;4994492;28;20069;-74
2022/11/07 11:21:50;;;;;;;0.10;0.10;;;;;;;13.17;100.00;100972.19;5003837;28;20034;-73
2022/11/07 11:24:24;;;;;;;0.10;0.10;;;;;;;13.18;100.00;100994.63;5003769;28;20037;-72
2022/11/07 11:26:51;;;;;;;0.03;0.03;;;;;;;13.23;100.00;100976.19;5004514;28;20026;-75
2022/11/07 11:29:31;;;;;;;0.10;0.10;;;;;;;13.30;100.00;100980.03;4992808;28;20495;-74